Time;durP1;ratioP1;P1;durP2;ratioP2;P2;SDS_P1;SDS_P2;PMS_P1;PMS_P2;Temp;Humidity;BMP_temperature;BMP_pressure;BME280_temperature;BME280_humidity;BME280_pressure;Samples;Min_cycle;Max_cycle;Signal;HPM_P1;HPM_P2
2023/11/11 00:01:08;;;;;;;7.93;3.17;;;;;;;;;;5030874;28;20032;-69
2023/11/11 00:03:34;;;;;;;10.68;4.68;;;;;;;;;;5038286;28;20025;-68
2023/11/11 00:05:59;;;;;;;11.55;4.55;;;;;;;;;;5045270;28;20045;-68
2023/11/11 00:08:25;;;;;;;16.00;5.93;;;;;;;;;;5030453;28;20421;-68
2023/11/11 00:10:50;;;;;;;10.75;4.00;;;;;;;;;;5029757;28;20037;-68
2023/11/11 00:13:15;;;;;;;11.73;4.30;;;;;;;;;;5030506;28;20045;-68
2023/11/11 00:15:40;;;;;;;12.50;4.93;;;;;;;;;;5030031;28;20388;-68
2023/11/11 00:18:07;;;;;;;14.27;5.15;;;;;;;;;;5034085;28;20389;-68
2023/11/11 00:20:34;;;;;;;13.93;5.60;;;;;;;;;;5047194;28;20048;-68
2023/11/11 00:23:01;;;;;;;13.07;4.60;;;;;;;;;;5042238;28;20029;-68
2023/11/11 00:25:27;;;;;;;14.23;6.35;;;;;;;;;;5030059;28;20028;-68
2023/11/11 00:27:52;;;;;;;11.48;5.53;;;;;;;;;;5029698;28;20544;-68
2023/11/11 00:30:18;;;;;;;12.60;5.63;;;;;;;;;;5029936;28;20480;-67
2023/11/11 00:32:48;;;;;;;10.88;4.75;;;;;;;;;;5029568;28;20029;-68
2023/11/11 00:35:14;;;;;;;10.18;4.50;;;;;;;;;;5034136;28;20508;-68
2023/11/11 00:37:39;;;;;;;14.30;4.93;;;;;;;;;;5039942;28;20025;-68
2023/11/11 00:40:04;;;;;;;10.82;4.88;;;;;;;;;;5037233;28;20079;-68
2023/11/11 00:42:30;;;;;;;9.27;4.38;;;;;;;;;;5029867;28;20049;-68
2023/11/11 00:44:55;;;;;;;11.45;4.50;;;;;;;;;;5029867;28;20498;-68
2023/11/11 00:47:21;;;;;;;13.02;4.47;;;;;;;;;;5029908;28;20136;-68
2023/11/11 00:49:49;;;;;;;13.43;4.30;;;;;;;;;;5029202;28;20451;-68
2023/11/11 00:52:15;;;;;;;11.02;4.68;;;;;;;;;;5042106;28;20017;-67
2023/11/11 00:54:40;;;;;;;13.27;4.20;;;;;;;;;;5024059;28;20083;-67
2023/11/11 00:57:05;;;;;;;10.93;3.72;;;;;;;;;;5029297;28;20112;-69
2023/11/11 00:59:31;;;;;;;19.63;5.13;;;;;;;;;;5028792;28;20441;-68
2023/11/11 01:02:01;;;;;;;9.57;3.90;;;;;;;;;;5029446;28;20272;-68
2023/11/11 01:04:26;;;;;;;14.30;4.43;;;;;;;;;;5029429;28;20032;-69
2023/11/11 01:06:52;;;;;;;9.05;4.20;;;;;;;;;;5038022;28;20275;-67
2023/11/11 01:09:17;;;;;;;8.40;3.90;;;;;;;;;;5042291;28;20029;-69
2023/11/11 01:11:42;;;;;;;6.50;2.80;;;;;;;;;;5029466;28;20020;-68
2023/11/11 01:14:07;;;;;;;9.57;3.97;;;;;;;;;;5029488;28;20020;-68
2023/11/11 01:16:33;;;;;;;10.52;4.05;;;;;;;;;;5029177;28;20543;-69
2023/11/11 01:18:58;;;;;;;13.80;5.00;;;;;;;;;;5028963;28;20078;-68
2023/11/11 01:21:24;;;;;;;10.18;5.90;;;;;;;;;;5035452;28;20044;-68
2023/11/11 01:23:49;;;;;;;20.02;7.40;;;;;;;;;;5038616;28;20032;-68
2023/11/11 01:26:15;;;;;;;23.75;10.43;;;;;;;;;;5029190;28;20018;-69
2023/11/11 01:28:40;;;;;;;24.27;10.20;;;;;;;;;;5029073;28;20228;-69
2023/11/11 01:31:06;;;;;;;25.15;10.30;;;;;;;;;;5029224;28;20032;-68
2023/11/11 01:33:31;;;;;;;30.60;10.48;;;;;;;;;;5029848;28;20469;-68
2023/11/11 01:36:00;;;;;;;36.10;16.00;;;;;;;;;;5038604;28;20549;-69
2023/11/11 01:38:26;;;;;;;45.10;21.25;;;;;;;;;;5041855;28;20032;-68
2023/11/11 01:40:52;;;;;;;45.92;15.32;;;;;;;;;;5029006;28;20037;-67
2023/11/11 01:43:17;;;;;;;42.53;17.88;;;;;;;;;;5029215;28;20021;-69
2023/11/11 01:45:43;;;;;;;42.20;18.00;;;;;;;;;;5028489;28;20087;-68
2023/11/11 01:48:09;;;;;;;51.05;24.83;;;;;;;;;;5028121;28;20017;-69
2023/11/11 01:50:37;;;;;;;43.88;17.70;;;;;;;;;;5030879;28;20049;-69
2023/11/11 01:53:02;;;;;;;52.38;21.67;;;;;;;;;;5037913;28;20021;-68
2023/11/11 01:55:28;;;;;;;43.28;18.48;;;;;;;;;;5028336;28;20025;-68
2023/11/11 01:57:53;;;;;;;39.33;19.42;;;;;;;;;;5028612;28;20020;-69
2023/11/11 02:00:20;;;;;;;61.15;29.00;;;;;;;;;;5028705;28;20431;-69
2023/11/11 02:02:45;;;;;;;62.10;29.40;;;;;;;;;;5028782;28;20014;-69
2023/11/11 02:05:11;;;;;;;57.15;24.45;;;;;;;;;;5028365;28;20040;-69
2023/11/11 02:07:36;;;;;;;52.07;22.63;;;;;;;;;;5028440;28;20048;-69
2023/11/11 02:10:02;;;;;;;55.70;29.83;;;;;;;;;;5028296;28;20263;-68
2023/11/11 02:12:28;;;;;;;58.75;28.95;;;;;;;;;;5029025;28;20381;-68
2023/11/11 02:14:53;;;;;;;56.85;21.55;;;;;;;;;;5028504;28;20021;-68
2023/11/11 02:17:18;;;;;;;45.03;22.00;;;;;;;;;;5027839;28;20071;-69
2023/11/11 02:19:43;;;;;;;53.95;25.50;;;;;;;;;;5029158;28;20049;-68
2023/11/11 02:22:09;;;;;;;57.13;30.60;;;;;;;;;;5031302;28;20029;-69
2023/11/11 02:24:37;;;;;;;59.58;32.00;;;;;;;;;;5033020;28;20104;-68
2023/11/11 02:27:02;;;;;;;63.15;27.70;;;;;;;;;;5031324;28;20239;-69
2023/11/11 02:29:28;;;;;;;57.60;27.98;;;;;;;;;;5032382;28;20116;-67
2023/11/11 02:31:53;;;;;;;59.25;24.27;;;;;;;;;;5031963;28;20025;-69
2023/11/11 02:34:19;;;;;;;44.58;21.20;;;;;;;;;;5032517;28;20071;-69
2023/11/11 02:36:44;;;;;;;41.05;19.67;;;;;;;;;;5031524;28;20021;-69
2023/11/11 02:39:13;;;;;;;43.73;22.00;;;;;;;;;;5032336;28;20044;-69
2023/11/11 02:41:38;;;;;;;49.35;26.05;;;;;;;;;;5032757;28;20264;-68
2023/11/11 02:44:03;;;;;;;45.58;22.98;;;;;;;;;;5032170;28;20036;-69
2023/11/11 02:46:28;;;;;;;46.85;20.73;;;;;;;;;;5031241;28;20629;-69
2023/11/11 02:48:53;;;;;;;44.13;21.33;;;;;;;;;;5032388;28;20091;-69
2023/11/11 02:51:19;;;;;;;44.45;19.23;;;;;;;;;;5032290;28;20017;-68
2023/11/11 02:53:44;;;;;;;43.67;17.50;;;;;;;;;;5031933;28;20445;-69
2023/11/11 02:56:10;;;;;;;38.92;17.67;;;;;;;;;;5031883;28;20100;-69
2023/11/11 02:58:35;;;;;;;40.30;16.65;;;;;;;;;;5031688;28;20388;-69
2023/11/11 03:01:02;;;;;;;34.60;14.60;;;;;;;;;;5031761;28;20033;-69
2023/11/11 03:03:27;;;;;;;34.83;15.93;;;;;;;;;;5031835;28;20283;-69
2023/11/11 03:05:52;;;;;;;33.17;15.80;;;;;;;;;;5031087;28;20021;-68
2023/11/11 03:08:18;;;;;;;28.55;13.25;;;;;;;;;;5031574;28;20502;-69
2023/11/11 03:10:43;;;;;;;32.20;15.27;;;;;;;;;;5031486;28;20025;-68
2023/11/11 03:13:09;;;;;;;35.78;14.02;;;;;;;;;;5033333;28;20715;-68
2023/11/11 03:15:35;;;;;;;35.38;13.48;;;;;;;;;;5031312;28;20040;-69
2023/11/11 03:18:00;;;;;;;28.58;14.35;;;;;;;;;;5031046;28;20037;-69
2023/11/11 03:20:25;;;;;;;31.67;12.75;;;;;;;;;;5031513;28;20474;-68
2023/11/11 03:22:50;;;;;;;25.27;10.87;;;;;;;;;;5031652;28;20029;-68
2023/11/11 03:25:16;;;;;;;31.67;13.50;;;;;;;;;;5030773;28;20260;-68
2023/11/11 03:27:41;;;;;;;27.17;11.63;;;;;;;;;;5032334;28;20401;-69
2023/11/11 03:30:07;;;;;;;25.88;9.98;;;;;;;;;;5031812;28;20025;-69
2023/11/11 03:32:32;;;;;;;32.38;12.57;;;;;;;;;;5032897;28;20022;-68
2023/11/11 03:34:58;;;;;;;27.80;10.63;;;;;;;;;;5030838;28;20030;-68
2023/11/11 03:37:25;;;;;;;28.80;11.63;;;;;;;;;;5030878;28;20256;-69
2023/11/11 03:39:51;;;;;;;26.58;12.27;;;;;;;;;;5030686;28;20623;-68
2023/11/11 03:42:16;;;;;;;30.67;9.50;;;;;;;;;;5032216;28;20017;-68
2023/11/11 03:44:41;;;;;;;28.27;14.55;;;;;;;;;;5031721;28;20453;-67
2023/11/11 03:47:07;;;;;;;22.65;9.40;;;;;;;;;;5030482;28;20087;-68
2023/11/11 03:49:32;;;;;;;27.50;15.48;;;;;;;;;;5030604;28;20025;-68
2023/11/11 03:51:58;;;;;;;26.17;12.63;;;;;;;;;;5030906;28;20017;-67
2023/11/11 03:54:23;;;;;;;31.52;11.20;;;;;;;;;;5031069;28;20390;-68
2023/11/11 03:56:50;;;;;;;29.40;13.80;;;;;;;;;;5030890;28;20449;-68
2023/11/11 03:59:15;;;;;;;24.63;9.48;;;;;;;;;;5031367;28;20274;-68
2023/11/11 04:01:40;;;;;;;31.88;13.32;;;;;;;;;;5030608;28;20029;-68
2023/11/11 04:04:08;;;;;;;32.17;10.80;;;;;;;;;;5030532;28;20028;-68
2023/11/11 04:06:33;;;;;;;36.63;11.45;;;;;;;;;;5030397;28;20029;-67
2023/11/11 04:08:59;;;;;;;37.15;11.90;;;;;;;;;;5030396;28;20356;-68
2023/11/11 04:11:24;;;;;;;27.85;10.77;;;;;;;;;;5031433;28;20017;-67
2023/11/11 04:13:50;;;;;;;25.70;10.90;;;;;;;;;;5031738;28;20056;-68
2023/11/11 04:16:15;;;;;;;22.33;10.32;;;;;;;;;;5030609;28;20072;-68
2023/11/11 04:18:41;;;;;;;18.95;8.57;;;;;;;;;;5030435;28;20083;-67
2023/11/11 04:21:07;;;;;;;26.10;7.55;;;;;;;;;;5030350;28;20463;-67
2023/11/11 04:23:32;;;;;;;19.40;7.20;;;;;;;;;;5030618;28;20089;-69
2023/11/11 04:25:58;;;;;;;23.27;6.60;;;;;;;;;;5031520;28;20022;-68
2023/11/11 04:28:24;;;;;;;25.17;7.22;;;;;;;;;;5031134;28;20095;-68
2023/11/11 04:30:49;;;;;;;23.30;8.23;;;;;;;;;;5029913;28;20025;-69
2023/11/11 04:33:16;;;;;;;12.25;5.65;;;;;;;;;;5030532;28;20017;-69
2023/11/11 04:35:42;;;;;;;16.63;6.45;;;;;;;;;;5029622;28;20033;-69
2023/11/11 04:38:07;;;;;;;13.40;6.20;;;;;;;;;;5029535;28;20104;-68
2023/11/11 04:40:33;;;;;;;16.63;5.95;;;;;;;;;;5030994;28;20034;-68
2023/11/11 04:42:58;;;;;;;16.75;7.72;;;;;;;;;;5036989;28;20033;-68
2023/11/11 04:45:23;;;;;;;18.17;5.33;;;;;;;;;;5029686;28;20033;-68
2023/11/11 04:47:51;;;;;;;19.98;5.25;;;;;;;;;;5029305;28;20693;-68
2023/11/11 04:50:16;;;;;;;17.90;5.43;;;;;;;;;;5029507;28;20514;-68
2023/11/11 04:52:41;;;;;;;10.45;4.55;;;;;;;;;;5030029;28;20032;-68
2023/11/11 04:55:07;;;;;;;20.00;4.60;;;;;;;;;;5029716;28;20056;-68
2023/11/11 04:57:33;;;;;;;12.35;4.13;;;;;;;;;;5031442;28;20017;-68
2023/11/11 04:59:58;;;;;;;10.73;4.10;;;;;;;;;;5033920;28;20028;-68
2023/11/11 05:02:23;;;;;;;17.53;4.77;;;;;;;;;;5029943;28;20052;-68
2023/11/11 05:04:48;;;;;;;12.73;4.37;;;;;;;;;;5029556;28;20272;-68
2023/11/11 05:07:13;;;;;;;14.67;4.87;;;;;;;;;;5032463;28;20271;-68
2023/11/11 05:09:38;;;;;;;14.07;3.63;;;;;;;;;;5034286;28;20295;-68
2023/11/11 05:12:05;;;;;;;14.23;3.77;;;;;;;;;;5029538;28;20598;-68
2023/11/11 05:14:31;;;;;;;12.80;3.63;;;;;;;;;;5032422;28;20264;-68
2023/11/11 05:16:57;;;;;;;8.60;3.30;;;;;;;;;;5033548;28;20143;-68
2023/11/11 05:19:23;;;;;;;8.40;4.25;;;;;;;;;;5029267;28;20021;-68
2023/11/11 05:21:48;;;;;;;6.28;3.10;;;;;;;;;;5029436;28;20018;-67
2023/11/11 05:24:14;;;;;;;11.85;2.85;;;;;;;;;;5029574;28;20060;-68
2023/11/11 05:26:40;;;;;;;6.72;2.90;;;;;;;;;;5029150;28;20026;-67
2023/11/11 05:29:05;;;;;;;16.45;2.80;;;;;;;;;;5028838;28;20075;-68
2023/11/11 05:31:31;;;;;;;9.85;3.15;;;;;;;;;;5035096;28;20028;-68
2023/11/11 05:33:56;;;;;;;11.10;2.08;;;;;;;;;;5034809;28;20040;-68
2023/11/11 05:36:21;;;;;;;16.50;2.88;;;;;;;;;;5028900;28;20029;-68
2023/11/11 05:38:49;;;;;;;7.63;1.90;;;;;;;;;;5028894;28;20029;-69
2023/11/11 05:41:15;;;;;;;8.77;2.72;;;;;;;;;;5029257;28;20249;-68
2023/11/11 05:43:40;;;;;;;5.45;2.30;;;;;;;;;;5029319;28;20029;-68
2023/11/11 05:46:07;;;;;;;10.63;2.03;;;;;;;;;;5033706;28;20389;-68
2023/11/11 05:48:32;;;;;;;6.15;2.17;;;;;;;;;;5028557;28;20611;-68
2023/11/11 05:50:57;;;;;;;6.50;2.03;;;;;;;;;;5029147;28;20112;-68
2023/11/11 05:53:23;;;;;;;13.48;2.67;;;;;;;;;;5030894;28;20279;-68
2023/11/11 05:55:48;;;;;;;5.07;2.20;;;;;;;;;;5035655;28;20143;-68
2023/11/11 05:58:15;;;;;;;6.90;2.67;;;;;;;;;;5032553;28;20259;-68
2023/11/11 06:00:40;;;;;;;15.23;3.35;;;;;;;;;;5036678;28;20112;-68
2023/11/11 06:03:05;;;;;;;9.73;2.80;;;;;;;;;;5035034;28;20451;-68
2023/11/11 06:05:30;;;;;;;15.10;3.77;;;;;;;;;;5032865;28;20022;-68
2023/11/11 06:07:56;;;;;;;21.77;3.67;;;;;;;;;;5032865;28;20318;-68
2023/11/11 06:10:21;;;;;;;12.35;4.25;;;;;;;;;;5032338;28;20025;-67
2023/11/11 06:12:47;;;;;;;9.95;3.28;;;;;;;;;;5032966;28;20472;-68
2023/11/11 06:15:12;;;;;;;20.17;3.90;;;;;;;;;;5038045;28;20013;-68
2023/11/11 06:17:38;;;;;;;10.52;3.10;;;;;;;;;;5041226;28;20025;-68
2023/11/11 06:20:05;;;;;;;19.50;5.72;;;;;;;;;;5031954;28;20049;-68
2023/11/11 06:22:32;;;;;;;16.02;4.82;;;;;;;;;;5032785;28;20021;-68
2023/11/11 06:24:57;;;;;;;16.83;7.20;;;;;;;;;;5032317;28;20025;-68
2023/11/11 06:27:23;;;;;;;17.33;5.10;;;;;;;;;;5031738;28;20438;-68
2023/11/11 06:29:48;;;;;;;19.42;6.55;;;;;;;;;;5036347;28;20276;-67
2023/11/11 06:32:13;;;;;;;11.20;5.03;;;;;;;;;;5034609;28;21087;-68
2023/11/11 06:34:38;;;;;;;12.40;5.97;;;;;;;;;;5032579;28;20359;-68
2023/11/11 06:37:04;;;;;;;23.25;7.35;;;;;;;;;;5031831;28;20493;-68
2023/11/11 06:39:30;;;;;;;19.23;7.40;;;;;;;;;;5032038;28;20044;-67
2023/11/11 06:41:56;;;;;;;15.57;6.82;;;;;;;;;;5031695;28;20524;-67
2023/11/11 06:44:21;;;;;;;22.25;6.93;;;;;;;;;;5037480;28;20029;-68
2023/11/11 06:46:46;;;;;;;24.83;6.32;;;;;;;;;;5034511;28;20656;-68
2023/11/11 06:49:12;;;;;;;18.70;6.63;;;;;;;;;;5031774;28;20108;-68
2023/11/11 06:51:37;;;;;;;16.97;6.00;;;;;;;;;;5036762;28;20508;-68
2023/11/11 06:54:03;;;;;;;16.77;5.75;;;;;;;;;;5038294;28;20264;-68
2023/11/11 06:56:28;;;;;;;16.17;6.15;;;;;;;;;;5032391;28;20021;-68
2023/11/11 06:58:54;;;;;;;16.73;6.60;;;;;;;;;;5031779;28;20374;-67
2023/11/11 07:01:23;;;;;;;11.03;6.10;;;;;;;;;;5036420;28;20280;-68
2023/11/11 07:03:48;;;;;;;15.90;6.80;;;;;;;;;;5036694;28;20275;-67
2023/11/11 07:06:15;;;;;;;19.20;7.90;;;;;;;;;;5039050;28;20066;-67
2023/11/11 07:08:40;;;;;;;24.02;8.10;;;;;;;;;;5034205;28;20079;-67
2023/11/11 07:11:06;;;;;;;17.40;8.00;;;;;;;;;;5031556;28;20425;-68
2023/11/11 07:13:31;;;;;;;23.90;7.47;;;;;;;;;;5031830;28;20295;-68
2023/11/11 07:15:56;;;;;;;25.17;9.32;;;;;;;;;;5031137;28;20030;-68
2023/11/11 07:18:21;;;;;;;22.40;9.00;;;;;;;;;;5033408;28;20123;-68
2023/11/11 07:20:46;;;;;;;30.35;10.00;;;;;;;;;;5034042;28;20596;-68
2023/11/11 07:23:14;;;;;;;27.10;10.00;;;;;;;;;;5031117;28;20037;-68
2023/11/11 07:25:41;;;;;;;29.95;10.10;;;;;;;;;;5030845;28;20371;-68
2023/11/11 07:28:06;;;;;;;23.25;6.28;;;;;;;;;;5031209;28;20056;-68
2023/11/11 07:30:32;;;;;;;29.42;8.98;;;;;;;;;;5031400;28;20445;-68
2023/11/11 07:32:58;;;;;;;25.70;8.85;;;;;;;;;;5030672;28;20033;-68
2023/11/11 07:35:24;;;;;;;17.75;7.38;;;;;;;;;;5037400;28;20017;-68
2023/11/11 07:37:49;;;;;;;27.55;7.40;;;;;;;;;;5032241;28;20032;-68
2023/11/11 07:40:15;;;;;;;21.85;6.13;;;;;;;;;;5031882;28;20018;-67
2023/11/11 07:42:40;;;;;;;14.52;6.90;;;;;;;;;;5029140;28;20026;-68
2023/11/11 07:45:06;;;;;;;15.18;7.20;;;;;;;;;;5028555;28;20078;-68
2023/11/11 07:47:34;;;;;;;20.85;7.45;;;;;;;;;;5028444;28;20394;-68
2023/11/11 07:49:59;;;;;;;30.80;8.18;;;;;;;;;;5026827;28;20025;-68
2023/11/11 07:52:25;;;;;;;17.02;6.82;;;;;;;;;;5029939;28;20024;-68
2023/11/11 07:54:50;;;;;;;13.75;6.15;;;;;;;;;;5033331;28;20607;-68
2023/11/11 07:57:15;;;;;;;20.58;7.18;;;;;;;;;;5034506;28;20017;-68
2023/11/11 07:59:43;;;;;;;9.30;3.80;;;;;;;;;;5028904;28;20033;-68
2023/11/11 08:02:12;;;;;;;22.52;6.63;;;;;;;;;;5028588;28;20260;-68
2023/11/11 08:04:38;;;;;;;26.90;8.07;;;;;;;;;;5029153;28;20017;-68
2023/11/11 08:07:04;;;;;;;19.77;7.63;;;;;;;;;;5028106;28;20441;-68
2023/11/11 08:09:29;;;;;;;22.15;8.18;;;;;;;;;;5032733;28;20033;-68
2023/11/11 08:11:54;;;;;;;13.80;6.03;;;;;;;;;;5032264;28;20228;-68
2023/11/11 08:14:21;;;;;;;29.27;7.57;;;;;;;;;;5034220;28;20264;-68
2023/11/11 08:16:46;;;;;;;20.73;5.60;;;;;;;;;;5027348;28;20063;-68
2023/11/11 08:19:11;;;;;;;19.60;6.90;;;;;;;;;;5027297;28;20025;-67
2023/11/11 08:21:36;;;;;;;19.17;6.93;;;;;;;;;;5030831;28;20782;-68
2023/11/11 08:24:03;;;;;;;15.38;6.68;;;;;;;;;;5031351;28;20481;-67
2023/11/11 08:26:28;;;;;;;21.70;7.05;;;;;;;;;;5028100;28;20045;-67
2023/11/11 08:28:54;;;;;;;18.52;6.00;;;;;;;;;;5027173;28;20021;-67
2023/11/11 08:31:19;;;;;;;17.90;7.25;;;;;;;;;;5029003;28;20051;-68
2023/11/11 08:33:44;;;;;;;18.27;7.22;;;;;;;;;;5035525;28;20025;-68
2023/11/11 08:36:09;;;;;;;22.35;8.25;;;;;;;;;;5030226;28;20018;-68
2023/11/11 08:38:35;;;;;;;20.50;7.90;;;;;;;;;;5024154;28;20029;-67
2023/11/11 08:41:01;;;;;;;20.00;5.53;;;;;;;;;;5027731;28;20434;-68
2023/11/11 08:43:27;;;;;;;24.45;7.47;;;;;;;;;;5027702;28;20030;-68
2023/11/11 08:45:52;;;;;;;29.83;8.03;;;;;;;;;;5029767;28;20100;-67
2023/11/11 08:48:17;;;;;;;18.87;7.70;;;;;;;;;;5032696;28;20684;-68
2023/11/11 08:50:42;;;;;;;31.48;14.02;;;;;;;;;;5026794;28;20284;-68
2023/11/11 08:53:07;;;;;;;28.13;10.60;;;;;;;;;;5027752;28;20502;-67
2023/11/11 08:55:33;;;;;;;28.60;12.57;;;;;;;;;;5027562;28;20268;-68
2023/11/11 08:57:58;;;;;;;26.63;8.38;;;;;;;;;;5027525;28;20017;-67
2023/11/11 09:00:25;;;;;;;21.75;6.72;;;;;;;;;;5027729;28;20051;-68
2023/11/11 09:02:50;;;;;;;5.95;2.92;;;;;;;;;;5031734;28;20032;-68
2023/11/11 09:05:15;;;;;;;18.70;7.33;;;;;;;;;;5025418;28;20029;-68
2023/11/11 09:07:40;;;;;;;24.13;7.00;;;;;;;;;;5033889;28;20259;-68
2023/11/11 09:10:06;;;;;;;26.37;9.47;;;;;;;;;;5027217;28;20108;-68
2023/11/11 09:12:32;;;;;;;23.27;6.30;;;;;;;;;;5029009;28;20275;-68
2023/11/11 09:14:57;;;;;;;21.98;8.23;;;;;;;;;;5032899;28;20022;-68
2023/11/11 09:17:24;;;;;;;25.95;8.05;;;;;;;;;;5028732;28;20447;-68
2023/11/11 09:19:49;;;;;;;18.55;6.57;;;;;;;;;;5032243;28;20043;-67
2023/11/11 09:22:14;;;;;;;16.98;6.57;;;;;;;;;;5027506;28;20810;-68
2023/11/11 09:24:40;;;;;;;9.18;4.45;;;;;;;;;;5027310;28;20052;-68
2023/11/11 09:27:05;;;;;;;11.45;4.65;;;;;;;;;;5026711;28;20192;-68
2023/11/11 09:29:30;;;;;;;20.93;7.60;;;;;;;;;;5026825;28;20036;-68
2023/11/11 09:31:55;;;;;;;26.23;8.37;;;;;;;;;;5024730;28;20268;-68
2023/11/11 09:34:21;;;;;;;19.92;7.53;;;;;;;;;;5038104;28;20271;-68
2023/11/11 09:36:46;;;;;;;27.70;7.20;;;;;;;;;;5023930;28;20029;-68
2023/11/11 09:39:13;;;;;;;20.23;7.65;;;;;;;;;;5014426;28;20548;-68
2023/11/11 09:41:39;;;;;;;19.48;6.22;;;;;;;;;;5017146;28;20103;-68
2023/11/11 09:44:04;;;;;;;6.15;3.33;;;;;;;;;;5016389;28;20072;-67
2023/11/11 09:46:32;;;;;;;21.05;6.68;;;;;;;;;;5023501;28;20034;-68
2023/11/11 09:49:01;;;;;;;21.67;7.63;;;;;;;;;;5031751;28;20029;-68
2023/11/11 09:51:26;;;;;;;18.13;6.85;;;;;;;;;;5029394;28;20017;-68
2023/11/11 09:53:53;;;;;;;21.70;6.72;;;;;;;;;;5040157;28;20108;-67
2023/11/11 09:56:20;;;;;;;21.08;5.65;;;;;;;;;;5025353;28;20033;-68
2023/11/11 09:58:46;;;;;;;12.88;3.90;;;;;;;;;;5027916;28;20024;-68
2023/11/11 10:01:11;;;;;;;18.95;3.72;;;;;;;;;;5028322;28;20029;-68
2023/11/11 10:03:36;;;;;;;15.37;4.67;;;;;;;;;;5029172;28;20100;-68
2023/11/11 10:06:01;;;;;;;17.42;6.22;;;;;;;;;;5020198;28;20268;-68
2023/11/11 10:08:26;;;;;;;14.07;4.65;;;;;;;;;;5023712;28;20053;-68
2023/11/11 10:10:55;;;;;;;14.93;5.70;;;;;;;;;;5028868;28;20536;-67
2023/11/11 10:13:21;;;;;;;22.83;7.10;;;;;;;;;;5027726;28;20009;-67
2023/11/11 10:15:46;;;;;;;16.40;7.05;;;;;;;;;;5028377;28;20034;-67
2023/11/11 10:18:14;;;;;;;15.68;5.82;;;;;;;;;;5028263;28;20360;-69
2023/11/11 10:20:39;;;;;;;18.42;6.53;;;;;;;;;;5028387;28;20009;-68
2023/11/11 10:23:05;;;;;;;18.33;6.32;;;;;;;;;;5026342;28;20083;-68
2023/11/11 10:25:30;;;;;;;16.17;5.73;;;;;;;;;;5024020;28;20560;-68
2023/11/11 10:27:56;;;;;;;21.80;6.97;;;;;;;;;;5024641;28;20259;-68
2023/11/11 10:30:24;;;;;;;16.30;5.35;;;;;;;;;;5028455;28;20259;-68
2023/11/11 10:32:49;;;;;;;23.95;6.13;;;;;;;;;;5027636;28;20504;-68
2023/11/11 10:35:16;;;;;;;16.63;6.00;;;;;;;;;;5025124;28;20025;-68
2023/11/11 10:37:41;;;;;;;18.50;5.80;;;;;;;;;;5032148;28;20022;-68
2023/11/11 10:40:07;;;;;;;21.07;5.67;;;;;;;;;;5024148;28;20025;-68
2023/11/11 10:42:33;;;;;;;21.00;5.13;;;;;;;;;;5029724;28;20257;-68
2023/11/11 10:44:59;;;;;;;17.42;5.95;;;;;;;;;;5032120;28;20115;-67
2023/11/11 10:47:24;;;;;;;15.25;4.75;;;;;;;;;;5026713;28;20470;-68
2023/11/11 10:49:49;;;;;;;28.98;4.57;;;;;;;;;;5031877;28;20017;-68
2023/11/11 10:52:15;;;;;;;10.63;4.47;;;;;;;;;;5043071;28;20099;-68
2023/11/11 10:54:41;;;;;;;15.65;4.82;;;;;;;;;;5025220;28;20032;-68
2023/11/11 10:57:06;;;;;;;15.80;5.00;;;;;;;;;;5026515;28;20021;-68
2023/11/11 10:59:31;;;;;;;15.55;5.07;;;;;;;;;;5031782;28;20025;-69
2023/11/11 11:01:57;;;;;;;20.35;4.65;;;;;;;;;;5031101;28;20072;-69
2023/11/11 11:04:25;;;;;;;12.88;4.03;;;;;;;;;;5031761;28;20017;-68
2023/11/11 11:07:03;;;;;;;12.25;4.07;;;;;;;;;;5035200;28;20139;-68
2023/11/11 11:09:44;;;;;;;11.38;4.28;;;;;;;;;;5029531;28;20057;-68
2023/11/11 11:12:15;;;;;;;11.80;4.40;;;;;;;;;;5026701;28;20454;-69
2023/11/11 11:14:51;;;;;;;15.05;3.90;;;;;;;;;;5024488;28;20083;-69
2023/11/11 11:17:16;;;;;;;12.77;3.92;;;;;;;;;;5024804;28;20526;-69
2023/11/11 11:19:52;;;;;;;19.38;4.57;;;;;;;;;;5032222;28;20107;-69
2023/11/11 11:22:17;;;;;;;11.90;3.88;;;;;;;;;;5031543;28;20108;-68
2023/11/11 11:24:44;;;;;;;9.40;4.63;;;;;;;;;;5035028;28;20100;-68
2023/11/11 11:27:11;;;;;;;16.83;4.60;;;;;;;;;;5024335;28;20029;-69
2023/11/11 11:29:36;;;;;;;13.63;4.53;;;;;;;;;;5026215;28;20018;-68
2023/11/11 11:32:09;;;;;;;15.53;3.87;;;;;;;;;;5028560;28;20022;-68
2023/11/11 11:34:38;;;;;;;8.80;2.25;;;;;;;;;;5031409;28;20659;-69
2023/11/11 11:37:04;;;;;;;11.90;3.35;;;;;;;;;;5027750;28;20045;-68
2023/11/11 11:39:50;;;;;;;8.20;3.20;;;;;;;;;;5026789;28;20021;-68
2023/11/11 11:42:20;;;;;;;17.60;3.00;;;;;;;;;;5035075;28;20030;-68
2023/11/11 11:44:55;;;;;;;13.10;3.92;;;;;;;;;;5030928;28;20498;-68
2023/11/11 11:47:21;;;;;;;11.18;2.25;;;;;;;;;;5036056;28;20121;-68
2023/11/11 11:49:49;;;;;;;4.38;1.65;;;;;;;;;;5032285;28;20454;-69
2023/11/11 11:52:14;;;;;;;4.97;2.05;;;;;;;;;;5027023;28;20477;-69
2023/11/11 11:54:39;;;;;;;9.97;2.73;;;;;;;;;;5039490;28;20020;-68
2023/11/11 11:57:05;;;;;;;9.93;3.53;;;;;;;;;;5038554;28;20258;-68
2023/11/11 11:59:31;;;;;;;8.55;3.45;;;;;;;;;;5022573;28;20688;-68
2023/11/11 12:01:56;;;;;;;10.50;4.07;;;;;;;;;;5027934;28;20017;-68
2023/11/11 12:04:21;;;;;;;16.15;4.22;;;;;;;;;;5030754;28;20546;-68
2023/11/11 12:06:47;;;;;;;15.87;4.43;;;;;;;;;;5036024;28;20124;-68
2023/11/11 12:09:15;;;;;;;16.92;4.38;;;;;;;;;;5035627;28;20772;-68
2023/11/11 12:11:40;;;;;;;12.07;3.33;;;;;;;;;;5036146;28;20022;-68
2023/11/11 12:14:09;;;;;;;8.90;3.10;;;;;;;;;;5030632;28;20025;-69
2023/11/11 12:16:36;;;;;;;10.52;3.40;;;;;;;;;;5028689;28;20014;-68
2023/11/11 12:19:18;;;;;;;9.25;3.40;;;;;;;;;;5027331;28;20078;-68
2023/11/11 12:21:47;;;;;;;14.10;3.08;;;;;;;;;;5025528;28;20027;-68
2023/11/11 12:24:16;;;;;;;11.45;3.10;;;;;;;;;;5025338;28;20057;-68
2023/11/11 12:26:41;;;;;;;10.82;3.03;;;;;;;;;;5038558;28;20020;-68
2023/11/11 12:29:07;;;;;;;11.45;4.00;;;;;;;;;;5027072;28;20024;-68
2023/11/11 12:31:32;;;;;;;16.60;3.47;;;;;;;;;;5028354;28;20038;-68
2023/11/11 12:33:57;;;;;;;11.48;3.72;;;;;;;;;;5029214;28;20116;-68
2023/11/11 12:36:24;;;;;;;10.63;3.15;;;;;;;;;;5030716;28;20120;-69
2023/11/11 12:39:01;;;;;;;13.98;3.75;;;;;;;;;;5025212;28;20386;-68
2023/11/11 12:41:26;;;;;;;14.82;3.20;;;;;;;;;;5030067;28;20017;-68
2023/11/11 12:43:55;;;;;;;7.68;3.65;;;;;;;;;;5035407;28;20013;-68
2023/11/11 12:46:20;;;;;;;6.20;3.03;;;;;;;;;;5024349;28;20065;-68
2023/11/11 12:48:46;;;;;;;20.63;4.93;;;;;;;;;;5026100;28;20060;-68
2023/11/11 12:51:29;;;;;;;9.50;2.15;;;;;;;;;;5029330;28;20022;-68
2023/11/11 12:53:55;;;;;;;8.98;2.75;;;;;;;;;;5038341;28;20017;-68
2023/11/11 12:56:21;;;;;;;11.18;2.53;;;;;;;;;;5035240;28;20456;-68
2023/11/11 12:58:46;;;;;;;5.95;1.80;;;;;;;;;;5027070;28;20029;-69
2023/11/11 13:01:12;;;;;;;13.48;2.42;;;;;;;;;;5024806;28;20022;-68
2023/11/11 13:03:38;;;;;;;16.58;2.72;;;;;;;;;;5029532;28;20022;-68
2023/11/11 13:06:04;;;;;;;10.52;2.35;;;;;;;;;;5029316;28;20037;-68
2023/11/11 13:08:30;;;;;;;10.32;2.70;;;;;;;;;;5029380;28;20481;-69
2023/11/11 13:10:56;;;;;;;6.05;2.00;;;;;;;;;;5032185;28;20144;-68
2023/11/11 13:13:22;;;;;;;16.25;2.47;;;;;;;;;;5025211;28;20067;-68
2023/11/11 13:15:50;;;;;;;7.63;2.10;;;;;;;;;;5026942;28;20018;-69
2023/11/11 13:18:19;;;;;;;7.25;2.22;;;;;;;;;;5027975;28;20040;-68
2023/11/11 13:20:50;;;;;;;9.15;1.92;;;;;;;;;;5026819;28;20069;-68
2023/11/11 13:23:19;;;;;;;3.70;1.77;;;;;;;;;;5026211;28;20026;-68
2023/11/11 13:25:49;;;;;;;6.72;2.10;;;;;;;;;;5023850;28;20024;-68
2023/11/11 13:28:15;;;;;;;8.40;2.67;;;;;;;;;;5024319;28;20014;-68
2023/11/11 13:30:40;;;;;;;4.88;2.15;;;;;;;;;;5028709;28;20024;-68
2023/11/11 13:33:08;;;;;;;8.95;1.90;;;;;;;;;;5027502;28;20097;-68
2023/11/11 13:35:33;;;;;;;10.20;2.13;;;;;;;;;;5024258;28;20022;-68
2023/11/11 13:38:01;;;;;;;5.28;1.92;;;;;;;;;;5041781;28;20017;-69
2023/11/11 13:40:33;;;;;;;9.45;2.20;;;;;;;;;;5028867;28;20083;-68
2023/11/11 13:42:58;;;;;;;5.88;1.83;;;;;;;;;;5028668;28;20025;-68
2023/11/11 13:45:25;;;;;;;9.23;2.30;;;;;;;;;;5026460;28;20105;-68
2023/11/11 13:47:52;;;;;;;10.88;2.67;;;;;;;;;;5023009;28;20045;-68
2023/11/11 13:50:17;;;;;;;8.50;2.58;;;;;;;;;;5026725;28;20039;-68
2023/11/11 13:52:43;;;;;;;7.07;2.40;;;;;;;;;;5029036;28;20017;-68
2023/11/11 13:55:09;;;;;;;7.30;2.27;;;;;;;;;;5028590;28;20425;-68
2023/11/11 13:57:34;;;;;;;12.25;2.10;;;;;;;;;;5026053;28;20264;-68
2023/11/11 13:59:59;;;;;;;9.93;2.92;;;;;;;;;;5028511;28;20116;-68
2023/11/11 14:02:25;;;;;;;9.53;2.67;;;;;;;;;;5028503;28;20017;-68
2023/11/11 14:04:50;;;;;;;6.22;1.80;;;;;;;;;;5027463;28;20879;-68
2023/11/11 14:07:18;;;;;;;9.30;2.80;;;;;;;;;;5027396;28;20018;-69
2023/11/11 14:09:44;;;;;;;6.32;2.38;;;;;;;;;;5025087;28;20078;-68
2023/11/11 14:12:09;;;;;;;5.03;1.48;;;;;;;;;;5028072;28;20489;-68
2023/11/11 14:14:37;;;;;;;7.70;1.52;;;;;;;;;;5028742;28;20389;-68
2023/11/11 14:17:02;;;;;;;4.85;1.35;;;;;;;;;;5028419;28;20148;-68
2023/11/11 14:19:27;;;;;;;6.60;1.25;;;;;;;;;;5031212;28;20108;-68
2023/11/11 14:21:53;;;;;;;7.17;1.63;;;;;;;;;;5031770;28;20132;-68